sensor_id;sensor_type;location;lat;lon;timestamp;P1;durP1;ratioP1;P2;durP2;ratioP2
73697;SDS011;62004;42.566;23.164;2022-12-05T00:00:29;145.10;;;18.48;;
73697;SDS011;62004;42.566;23.164;2022-12-05T00:02:54;56.65;;;16.80;;
73697;SDS011;62004;42.566;23.164;2022-12-05T00:05:19;137.98;;;22.38;;
73697;SDS011;62004;42.566;23.164;2022-12-05T00:07:45;83.65;;;18.05;;
73697;SDS011;62004;42.566;23.164;2022-12-05T00:10:12;51.88;;;17.63;;
73697;SDS011;62004;42.566;23.164;2022-12-05T00:12:37;81.82;;;18.77;;
73697;SDS011;62004;42.566;23.164;2022-12-05T00:15:03;70.03;;;18.98;;
73697;SDS011;62004;42.566;23.164;2022-12-05T00:17:30;184.82;;;23.48;;
73697;SDS011;62004;42.566;23.164;2022-12-05T00:19:56;78.10;;;21.85;;
73697;SDS011;62004;42.566;23.164;2022-12-05T00:22:21;67.60;;;18.55;;
73697;SDS011;62004;42.566;23.164;2022-12-05T00:24:47;41.33;;;17.25;;
73697;SDS011;62004;42.566;23.164;2022-12-05T00:27:12;65.93;;;17.23;;
73697;SDS011;62004;42.566;23.164;2022-12-05T00:29:38;34.03;;;16.73;;
73697;SDS011;62004;42.566;23.164;2022-12-05T00:32:03;39.88;;;16.13;;
73697;SDS011;62004;42.566;23.164;2022-12-05T00:34:29;62.10;;;18.38;;
73697;SDS011;62004;42.566;23.164;2022-12-05T00:36:54;127.47;;;22.20;;
73697;SDS011;62004;42.566;23.164;2022-12-05T00:39:20;94.50;;;21.13;;
73697;SDS011;62004;42.566;23.164;2022-12-05T00:41:45;119.10;;;22.67;;
73697;SDS011;62004;42.566;23.164;2022-12-05T00:44:11;63.50;;;19.45;;
73697;SDS011;62004;42.566;23.164;2022-12-05T00:46:37;31.65;;;14.02;;
73697;SDS011;62004;42.566;23.164;2022-12-05T00:49:03;35.78;;;17.67;;
73697;SDS011;62004;42.566;23.164;2022-12-05T00:51:31;32.80;;;16.67;;
73697;SDS011;62004;42.566;23.164;2022-12-05T00:54:00;29.88;;;15.23;;
73697;SDS011;62004;42.566;23.164;2022-12-05T00:56:27;33.65;;;15.90;;
73697;SDS011;62004;42.566;23.164;2022-12-05T00:58:54;24.15;;;12.65;;
73697;SDS011;62004;42.566;23.164;2022-12-05T01:01:25;25.08;;;13.48;;
73697;SDS011;62004;42.566;23.164;2022-12-05T01:03:57;23.98;;;13.85;;
73697;SDS011;62004;42.566;23.164;2022-12-05T01:06:25;34.35;;;16.52;;
73697;SDS011;62004;42.566;23.164;2022-12-05T01:08:51;29.90;;;14.57;;
73697;SDS011;62004;42.566;23.164;2022-12-05T01:11:18;34.00;;;17.23;;
73697;SDS011;62004;42.566;23.164;2022-12-05T01:13:44;44.53;;;19.10;;
73697;SDS011;62004;42.566;23.164;2022-12-05T01:16:44;30.25;;;16.02;;
73697;SDS011;62004;42.566;23.164;2022-12-05T01:19:04;37.95;;;17.58;;
73697;SDS011;62004;42.566;23.164;2022-12-05T01:21:32;36.75;;;16.80;;
73697;SDS011;62004;42.566;23.164;2022-12-05T01:23:57;47.13;;;20.23;;
73697;SDS011;62004;42.566;23.164;2022-12-05T01:26:23;61.13;;;20.13;;
73697;SDS011;62004;42.566;23.164;2022-12-05T01:28:49;35.53;;;16.45;;
73697;SDS011;62004;42.566;23.164;2022-12-05T01:31:17;36.95;;;16.67;;
73697;SDS011;62004;42.566;23.164;2022-12-05T01:33:46;34.47;;;17.45;;
73697;SDS011;62004;42.566;23.164;2022-12-05T01:36:12;29.40;;;15.38;;
73697;SDS011;62004;42.566;23.164;2022-12-05T01:38:38;26.33;;;14.25;;
73697;SDS011;62004;42.566;23.164;2022-12-05T01:41:05;36.97;;;17.50;;
73697;SDS011;62004;42.566;23.164;2022-12-05T01:43:32;29.80;;;15.98;;
73697;SDS011;62004;42.566;23.164;2022-12-05T01:45:58;23.95;;;14.82;;
73697;SDS011;62004;42.566;23.164;2022-12-05T01:48:24;29.35;;;15.45;;
73697;SDS011;62004;42.566;23.164;2022-12-05T01:50:54;30.58;;;15.00;;
73697;SDS011;62004;42.566;23.164;2022-12-05T01:53:20;28.80;;;15.63;;
73697;SDS011;62004;42.566;23.164;2022-12-05T01:55:46;30.42;;;16.13;;
73697;SDS011;62004;42.566;23.164;2022-12-05T01:58:12;25.85;;;13.70;;
73697;SDS011;62004;42.566;23.164;2022-12-05T02:00:38;25.17;;;13.25;;
73697;SDS011;62004;42.566;23.164;2022-12-05T02:03:05;23.05;;;13.30;;
73697;SDS011;62004;42.566;23.164;2022-12-05T02:05:33;25.42;;;14.32;;
73697;SDS011;62004;42.566;23.164;2022-12-05T02:08:01;24.30;;;13.77;;
73697;SDS011;62004;42.566;23.164;2022-12-05T02:10:32;63.33;;;18.80;;
73697;SDS011;62004;42.566;23.164;2022-12-05T02:13:12;38.10;;;17.45;;
73697;SDS011;62004;42.566;23.164;2022-12-05T02:15:48;131.07;;;22.38;;
73697;SDS011;62004;42.566;23.164;2022-12-05T02:18:25;177.82;;;25.00;;
73697;SDS011;62004;42.566;23.164;2022-12-05T02:37:25;46.42;;;17.33;;
73697;SDS011;62004;42.566;23.164;2022-12-05T02:39:55;35.97;;;17.27;;
73697;SDS011;62004;42.566;23.164;2022-12-05T02:42:42;29.65;;;16.05;;
73697;SDS011;62004;42.566;23.164;2022-12-05T02:45:14;38.35;;;18.40;;
73697;SDS011;62004;42.566;23.164;2022-12-05T02:47:45;31.52;;;16.75;;
73697;SDS011;62004;42.566;23.164;2022-12-05T02:50:12;35.90;;;17.30;;
73697;SDS011;62004;42.566;23.164;2022-12-05T02:52:41;32.63;;;16.63;;
73697;SDS011;62004;42.566;23.164;2022-12-05T02:55:09;22.75;;;11.63;;
73697;SDS011;62004;42.566;23.164;2022-12-05T02:57:35;26.58;;;13.63;;
73697;SDS011;62004;42.566;23.164;2022-12-05T03:00:01;26.13;;;14.20;;
73697;SDS011;62004;42.566;23.164;2022-12-05T03:02:31;28.02;;;15.27;;
73697;SDS011;62004;42.566;23.164;2022-12-05T03:07:32;24.88;;;13.10;;
73697;SDS011;62004;42.566;23.164;2022-12-05T03:09:59;28.02;;;13.95;;
73697;SDS011;62004;42.566;23.164;2022-12-05T03:12:28;40.00;;;18.75;;
73697;SDS011;62004;42.566;23.164;2022-12-05T03:15:17;241.88;;;28.85;;
73697;SDS011;62004;42.566;23.164;2022-12-05T03:20:57;270.75;;;26.40;;
73697;SDS011;62004;42.566;23.164;2022-12-05T03:23:32;168.35;;;23.48;;
73697;SDS011;62004;42.566;23.164;2022-12-05T03:26:02;71.43;;;19.55;;
73697;SDS011;62004;42.566;23.164;2022-12-05T03:28:37;38.22;;;17.48;;
73697;SDS011;62004;42.566;23.164;2022-12-05T03:31:15;28.52;;;15.07;;
73697;SDS011;62004;42.566;23.164;2022-12-05T03:33:46;32.75;;;16.40;;
73697;SDS011;62004;42.566;23.164;2022-12-05T03:36:14;42.90;;;18.05;;
73697;SDS011;62004;42.566;23.164;2022-12-05T03:43:57;45.47;;;19.00;;
73697;SDS011;62004;42.566;23.164;2022-12-05T03:46:40;133.63;;;22.60;;
73697;SDS011;62004;42.566;23.164;2022-12-05T03:51:57;218.82;;;23.00;;
73697;SDS011;62004;42.566;23.164;2022-12-05T03:55:06;73.07;;;17.27;;
73697;SDS011;62004;42.566;23.164;2022-12-05T03:57:35;201.18;;;24.45;;
73697;SDS011;62004;42.566;23.164;2022-12-05T04:00:10;69.40;;;18.15;;
73697;SDS011;62004;42.566;23.164;2022-12-05T04:02:40;180.13;;;18.35;;
73697;SDS011;62004;42.566;23.164;2022-12-05T04:05:19;75.30;;;19.92;;
73697;SDS011;62004;42.566;23.164;2022-12-05T04:07:45;61.90;;;16.48;;
73697;SDS011;62004;42.566;23.164;2022-12-05T04:10:32;321.38;;;29.20;;
73697;SDS011;62004;42.566;23.164;2022-12-05T04:13:12;327.75;;;29.23;;
73697;SDS011;62004;42.566;23.164;2022-12-05T04:15:44;232.65;;;23.90;;
73697;SDS011;62004;42.566;23.164;2022-12-05T04:18:49;154.52;;;18.83;;
73697;SDS011;62004;42.566;23.164;2022-12-05T04:21:18;302.15;;;25.88;;
73697;SDS011;62004;42.566;23.164;2022-12-05T04:24:02;114.97;;;18.52;;
73697;SDS011;62004;42.566;23.164;2022-12-05T04:26:47;65.65;;;14.77;;
73697;SDS011;62004;42.566;23.164;2022-12-05T04:29:28;151.52;;;21.02;;
73697;SDS011;62004;42.566;23.164;2022-12-05T04:31:57;78.82;;;14.25;;
73697;SDS011;62004;42.566;23.164;2022-12-05T04:34:25;100.72;;;18.10;;
73697;SDS011;62004;42.566;23.164;2022-12-05T04:36:54;119.25;;;15.02;;
73697;SDS011;62004;42.566;23.164;2022-12-05T04:39:49;47.65;;;14.05;;
73697;SDS011;62004;42.566;23.164;2022-12-05T04:42:17;144.30;;;16.38;;
73697;SDS011;62004;42.566;23.164;2022-12-05T04:44:47;154.75;;;20.13;;
73697;SDS011;62004;42.566;23.164;2022-12-05T04:47:15;57.92;;;14.70;;
73697;SDS011;62004;42.566;23.164;2022-12-05T04:49:43;105.63;;;15.75;;
73697;SDS011;62004;42.566;23.164;2022-12-05T04:52:09;178.73;;;20.98;;
73697;SDS011;62004;42.566;23.164;2022-12-05T04:54:37;177.40;;;19.25;;
73697;SDS011;62004;42.566;23.164;2022-12-05T04:57:11;64.22;;;14.45;;
73697;SDS011;62004;42.566;23.164;2022-12-05T04:59:37;161.77;;;22.02;;
73697;SDS011;62004;42.566;23.164;2022-12-05T05:02:06;78.28;;;15.63;;
73697;SDS011;62004;42.566;23.164;2022-12-05T05:07:09;125.00;;;21.35;;
73697;SDS011;62004;42.566;23.164;2022-12-05T05:09:36;144.07;;;21.85;;
73697;SDS011;62004;42.566;23.164;2022-12-05T05:12:02;158.63;;;22.23;;
73697;SDS011;62004;42.566;23.164;2022-12-05T05:14:28;139.40;;;20.77;;
73697;SDS011;62004;42.566;23.164;2022-12-05T05:16:54;102.82;;;22.30;;
73697;SDS011;62004;42.566;23.164;2022-12-05T05:19:20;45.47;;;17.73;;
73697;SDS011;62004;42.566;23.164;2022-12-05T05:21:45;33.00;;;14.38;;
73697;SDS011;62004;42.566;23.164;2022-12-05T05:24:12;25.30;;;14.43;;
73697;SDS011;62004;42.566;23.164;2022-12-05T05:26:40;30.20;;;15.80;;
73697;SDS011;62004;42.566;23.164;2022-12-05T05:29:07;27.88;;;13.38;;
73697;SDS011;62004;42.566;23.164;2022-12-05T05:31:34;23.05;;;11.90;;
73697;SDS011;62004;42.566;23.164;2022-12-05T05:33:59;24.23;;;11.93;;
73697;SDS011;62004;42.566;23.164;2022-12-05T05:36:25;18.50;;;10.73;;
73697;SDS011;62004;42.566;23.164;2022-12-05T05:38:52;19.77;;;11.57;;
73697;SDS011;62004;42.566;23.164;2022-12-05T05:41:23;18.15;;;11.45;;
73697;SDS011;62004;42.566;23.164;2022-12-05T05:43:51;16.67;;;10.05;;
73697;SDS011;62004;42.566;23.164;2022-12-05T05:46:18;17.08;;;8.48;;
73697;SDS011;62004;42.566;23.164;2022-12-05T05:48:45;18.30;;;10.27;;
73697;SDS011;62004;42.566;23.164;2022-12-05T05:51:11;21.15;;;11.48;;
73697;SDS011;62004;42.566;23.164;2022-12-05T05:53:37;17.65;;;10.23;;
73697;SDS011;62004;42.566;23.164;2022-12-05T05:56:03;18.73;;;11.18;;
73697;SDS011;62004;42.566;23.164;2022-12-05T05:58:30;18.33;;;11.43;;
73697;SDS011;62004;42.566;23.164;2022-12-05T06:01:05;19.35;;;10.85;;
73697;SDS011;62004;42.566;23.164;2022-12-05T06:03:32;19.42;;;11.25;;
73697;SDS011;62004;42.566;23.164;2022-12-05T06:06:02;17.15;;;10.10;;
73697;SDS011;62004;42.566;23.164;2022-12-05T06:08:32;14.90;;;9.77;;
73697;SDS011;62004;42.566;23.164;2022-12-05T06:10:58;18.73;;;10.98;;
73697;SDS011;62004;42.566;23.164;2022-12-05T06:13:24;19.15;;;11.23;;
73697;SDS011;62004;42.566;23.164;2022-12-05T06:15:49;21.13;;;11.60;;
73697;SDS011;62004;42.566;23.164;2022-12-05T06:18:15;14.48;;;10.02;;
73697;SDS011;62004;42.566;23.164;2022-12-05T06:20:41;15.93;;;10.18;;
73697;SDS011;62004;42.566;23.164;2022-12-05T06:23:06;16.00;;;10.68;;
73697;SDS011;62004;42.566;23.164;2022-12-05T06:25:32;13.60;;;8.38;;
73697;SDS011;62004;42.566;23.164;2022-12-05T06:27:57;11.27;;;7.32;;
73697;SDS011;62004;42.566;23.164;2022-12-05T06:30:23;13.23;;;7.60;;
73697;SDS011;62004;42.566;23.164;2022-12-05T06:32:48;9.15;;;6.30;;
73697;SDS011;62004;42.566;23.164;2022-12-05T06:35:14;8.50;;;5.65;;
73697;SDS011;62004;42.566;23.164;2022-12-05T06:37:41;8.02;;;5.65;;
73697;SDS011;62004;42.566;23.164;2022-12-05T06:40:07;8.40;;;5.28;;
73697;SDS011;62004;42.566;23.164;2022-12-05T06:42:34;8.95;;;6.25;;
73697;SDS011;62004;42.566;23.164;2022-12-05T06:44:59;11.52;;;6.60;;
73697;SDS011;62004;42.566;23.164;2022-12-05T06:47:24;8.40;;;5.80;;
73697;SDS011;62004;42.566;23.164;2022-12-05T06:49:50;8.35;;;5.13;;
73697;SDS011;62004;42.566;23.164;2022-12-05T06:52:15;9.93;;;6.63;;
73697;SDS011;62004;42.566;23.164;2022-12-05T06:54:41;8.07;;;5.32;;
73697;SDS011;62004;42.566;23.164;2022-12-05T06:57:06;8.68;;;5.20;;
73697;SDS011;62004;42.566;23.164;2022-12-05T06:59:33;7.18;;;4.88;;
73697;SDS011;62004;42.566;23.164;2022-12-05T07:01:59;8.15;;;5.38;;
73697;SDS011;62004;42.566;23.164;2022-12-05T07:04:24;9.50;;;5.18;;
73697;SDS011;62004;42.566;23.164;2022-12-05T07:06:50;8.65;;;5.60;;
73697;SDS011;62004;42.566;23.164;2022-12-05T07:09:21;9.63;;;4.93;;
73697;SDS011;62004;42.566;23.164;2022-12-05T07:12:07;8.38;;;5.43;;
73697;SDS011;62004;42.566;23.164;2022-12-05T07:14:33;9.35;;;5.78;;
73697;SDS011;62004;42.566;23.164;2022-12-05T07:16:58;7.50;;;5.03;;
73697;SDS011;62004;42.566;23.164;2022-12-05T07:19:24;6.70;;;4.53;;
73697;SDS011;62004;42.566;23.164;2022-12-05T07:21:49;9.45;;;5.13;;
73697;SDS011;62004;42.566;23.164;2022-12-05T07:24:15;7.35;;;4.90;;
73697;SDS011;62004;42.566;23.164;2022-12-05T07:26:40;37.00;;;15.98;;
73697;SDS011;62004;42.566;23.164;2022-12-05T07:29:06;31.08;;;17.10;;
73697;SDS011;62004;42.566;23.164;2022-12-05T07:31:31;94.10;;;17.63;;
73697;SDS011;62004;42.566;23.164;2022-12-05T07:33:58;18.65;;;11.88;;
73697;SDS011;62004;42.566;23.164;2022-12-05T07:36:23;28.35;;;16.00;;
73697;SDS011;62004;42.566;23.164;2022-12-05T07:38:53;30.25;;;16.60;;
73697;SDS011;62004;42.566;23.164;2022-12-05T07:41:24;16.88;;;10.05;;
73697;SDS011;62004;42.566;23.164;2022-12-05T07:43:54;21.38;;;12.48;;
73697;SDS011;62004;42.566;23.164;2022-12-05T07:46:24;20.05;;;11.75;;
73697;SDS011;62004;42.566;23.164;2022-12-05T07:48:50;20.65;;;11.15;;
73697;SDS011;62004;42.566;23.164;2022-12-05T07:51:16;18.80;;;13.68;;
73697;SDS011;62004;42.566;23.164;2022-12-05T07:53:42;12.68;;;8.45;;
73697;SDS011;62004;42.566;23.164;2022-12-05T07:56:08;10.00;;;6.78;;
73697;SDS011;62004;42.566;23.164;2022-12-05T07:58:35;10.85;;;6.53;;
73697;SDS011;62004;42.566;23.164;2022-12-05T08:01:05;16.08;;;10.30;;
73697;SDS011;62004;42.566;23.164;2022-12-05T08:03:32;18.17;;;9.63;;
73697;SDS011;62004;42.566;23.164;2022-12-05T08:06:01;14.25;;;9.23;;
73697;SDS011;62004;42.566;23.164;2022-12-05T08:08:28;14.57;;;9.80;;
73697;SDS011;62004;42.566;23.164;2022-12-05T08:10:54;16.30;;;10.40;;
73697;SDS011;62004;42.566;23.164;2022-12-05T08:13:19;23.17;;;13.40;;
73697;SDS011;62004;42.566;23.164;2022-12-05T08:15:44;35.05;;;19.60;;
73697;SDS011;62004;42.566;23.164;2022-12-05T08:18:10;29.67;;;16.45;;
73697;SDS011;62004;42.566;23.164;2022-12-05T08:20:35;29.80;;;15.40;;
73697;SDS011;62004;42.566;23.164;2022-12-05T08:23:01;23.77;;;14.93;;
73697;SDS011;62004;42.566;23.164;2022-12-05T08:25:26;22.02;;;13.50;;
73697;SDS011;62004;42.566;23.164;2022-12-05T08:27:52;25.00;;;12.88;;
73697;SDS011;62004;42.566;23.164;2022-12-05T08:30:17;24.95;;;14.80;;
73697;SDS011;62004;42.566;23.164;2022-12-05T08:32:43;24.70;;;14.30;;
73697;SDS011;62004;42.566;23.164;2022-12-05T08:35:08;22.23;;;11.88;;
73697;SDS011;62004;42.566;23.164;2022-12-05T08:37:34;18.13;;;10.60;;
73697;SDS011;62004;42.566;23.164;2022-12-05T08:39:59;18.00;;;10.30;;
73697;SDS011;62004;42.566;23.164;2022-12-05T08:42:25;19.88;;;11.45;;
73697;SDS011;62004;42.566;23.164;2022-12-05T08:44:51;15.77;;;9.65;;
73697;SDS011;62004;42.566;23.164;2022-12-05T08:47:17;18.13;;;11.63;;
73697;SDS011;62004;42.566;23.164;2022-12-05T08:49:42;19.77;;;11.35;;
73697;SDS011;62004;42.566;23.164;2022-12-05T08:52:08;17.83;;;11.05;;
73697;SDS011;62004;42.566;23.164;2022-12-05T08:54:34;18.58;;;10.70;;
73697;SDS011;62004;42.566;23.164;2022-12-05T08:57:00;14.48;;;9.30;;
73697;SDS011;62004;42.566;23.164;2022-12-05T08:59:25;18.80;;;11.20;;
73697;SDS011;62004;42.566;23.164;2022-12-05T09:01:57;14.57;;;9.10;;
73697;SDS011;62004;42.566;23.164;2022-12-05T09:04:22;16.58;;;10.23;;
73697;SDS011;62004;42.566;23.164;2022-12-05T09:06:48;16.17;;;9.20;;
73697;SDS011;62004;42.566;23.164;2022-12-05T09:09:13;15.05;;;8.70;;
73697;SDS011;62004;42.566;23.164;2022-12-05T09:11:40;20.80;;;9.82;;
73697;SDS011;62004;42.566;23.164;2022-12-05T09:14:10;19.80;;;11.07;;
73697;SDS011;62004;42.566;23.164;2022-12-05T09:16:36;18.65;;;10.00;;
73697;SDS011;62004;42.566;23.164;2022-12-05T09:19:03;22.45;;;12.77;;
73697;SDS011;62004;42.566;23.164;2022-12-05T09:21:30;29.50;;;15.18;;
73697;SDS011;62004;42.566;23.164;2022-12-05T09:23:59;27.92;;;15.73;;
73697;SDS011;62004;42.566;23.164;2022-12-05T09:26:25;29.15;;;15.95;;
73697;SDS011;62004;42.566;23.164;2022-12-05T09:28:51;21.00;;;13.05;;
73697;SDS011;62004;42.566;23.164;2022-12-05T09:31:18;36.92;;;20.60;;
73697;SDS011;62004;42.566;23.164;2022-12-05T09:33:45;26.73;;;15.32;;
73697;SDS011;62004;42.566;23.164;2022-12-05T09:36:12;23.75;;;14.60;;
73697;SDS011;62004;42.566;23.164;2022-12-05T09:38:40;22.67;;;13.80;;
73697;SDS011;62004;42.566;23.164;2022-12-05T09:41:13;27.45;;;15.10;;
73697;SDS011;62004;42.566;23.164;2022-12-05T09:44:15;29.00;;;15.25;;
73697;SDS011;62004;42.566;23.164;2022-12-05T09:46:49;27.13;;;15.18;;
73697;SDS011;62004;42.566;23.164;2022-12-05T09:49:17;28.08;;;14.68;;
73697;SDS011;62004;42.566;23.164;2022-12-05T09:51:43;30.15;;;15.48;;
73697;SDS011;62004;42.566;23.164;2022-12-05T09:54:10;26.40;;;14.82;;
73697;SDS011;62004;42.566;23.164;2022-12-05T09:56:37;24.02;;;14.52;;
73697;SDS011;62004;42.566;23.164;2022-12-05T09:59:03;28.17;;;15.57;;
73697;SDS011;62004;42.566;23.164;2022-12-05T10:15:26;25.98;;;15.38;;
73697;SDS011;62004;42.566;23.164;2022-12-05T10:21:04;23.95;;;13.73;;
73697;SDS011;62004;42.566;23.164;2022-12-05T10:26:11;30.98;;;16.73;;
73697;SDS011;62004;42.566;23.164;2022-12-05T10:31:24;24.73;;;11.32;;
73697;SDS011;62004;42.566;23.164;2022-12-05T10:37:36;23.17;;;11.85;;
73697;SDS011;62004;42.566;23.164;2022-12-05T10:39:43;22.00;;;12.73;;
73697;SDS011;62004;42.566;23.164;2022-12-05T10:42:11;17.30;;;9.38;;
73697;SDS011;62004;42.566;23.164;2022-12-05T10:47:05;18.30;;;9.13;;
73697;SDS011;62004;42.566;23.164;2022-12-05T10:49:30;13.65;;;8.13;;
73697;SDS011;62004;42.566;23.164;2022-12-05T10:51:57;13.95;;;7.22;;
73697;SDS011;62004;42.566;23.164;2022-12-05T10:54:25;12.45;;;7.03;;
73697;SDS011;62004;42.566;23.164;2022-12-05T10:56:56;8.02;;;5.60;;
73697;SDS011;62004;42.566;23.164;2022-12-05T10:59:38;8.23;;;5.40;;
73697;SDS011;62004;42.566;23.164;2022-12-05T11:02:17;7.40;;;4.70;;
73697;SDS011;62004;42.566;23.164;2022-12-05T11:04:47;6.22;;;4.55;;
73697;SDS011;62004;42.566;23.164;2022-12-05T11:09:54;5.15;;;4.18;;
73697;SDS011;62004;42.566;23.164;2022-12-05T11:12:20;5.75;;;3.45;;
73697;SDS011;62004;42.566;23.164;2022-12-05T11:15:30;7.60;;;3.80;;
73697;SDS011;62004;42.566;23.164;2022-12-05T11:17:49;5.97;;;4.63;;
73697;SDS011;62004;42.566;23.164;2022-12-05T11:22:42;17.05;;;9.25;;
73697;SDS011;62004;42.566;23.164;2022-12-05T11:25:25;6.97;;;3.83;;
73697;SDS011;62004;42.566;23.164;2022-12-05T11:27:58;17.88;;;9.63;;
73697;SDS011;62004;42.566;23.164;2022-12-05T11:30:57;22.15;;;13.93;;
73697;SDS011;62004;42.566;23.164;2022-12-05T11:33:31;29.35;;;15.20;;
73697;SDS011;62004;42.566;23.164;2022-12-05T11:36:02;20.98;;;11.98;;
73697;SDS011;62004;42.566;23.164;2022-12-05T11:38:36;25.83;;;13.02;;
73697;SDS011;62004;42.566;23.164;2022-12-05T11:54:42;22.77;;;13.20;;
73697;SDS011;62004;42.566;23.164;2022-12-05T11:57:15;24.58;;;11.90;;
73697;SDS011;62004;42.566;23.164;2022-12-05T12:08:44;28.02;;;12.98;;
73697;SDS011;62004;42.566;23.164;2022-12-05T12:11:29;28.65;;;13.60;;
73697;SDS011;62004;42.566;23.164;2022-12-05T12:16:45;23.75;;;11.57;;
73697;SDS011;62004;42.566;23.164;2022-12-05T12:42:47;19.17;;;10.68;;
73697;SDS011;62004;42.566;23.164;2022-12-05T12:45:01;17.88;;;10.50;;
73697;SDS011;62004;42.566;23.164;2022-12-05T12:50:31;19.38;;;11.45;;
73697;SDS011;62004;42.566;23.164;2022-12-05T12:55:38;19.02;;;11.77;;
73697;SDS011;62004;42.566;23.164;2022-12-05T12:58:18;18.83;;;8.85;;
73697;SDS011;62004;42.566;23.164;2022-12-05T13:03:51;20.83;;;11.90;;
73697;SDS011;62004;42.566;23.164;2022-12-05T13:09:33;20.98;;;10.65;;
73697;SDS011;62004;42.566;23.164;2022-12-05T13:12:09;18.65;;;10.50;;
73697;SDS011;62004;42.566;23.164;2022-12-05T13:14:36;18.95;;;10.52;;
73697;SDS011;62004;42.566;23.164;2022-12-05T13:17:04;19.75;;;9.80;;
73697;SDS011;62004;42.566;23.164;2022-12-05T13:19:45;18.02;;;10.02;;
73697;SDS011;62004;42.566;23.164;2022-12-05T13:22:12;16.73;;;9.73;;
73697;SDS011;62004;42.566;23.164;2022-12-05T13:24:38;20.63;;;11.50;;
73697;SDS011;62004;42.566;23.164;2022-12-05T13:27:05;18.30;;;9.65;;
73697;SDS011;62004;42.566;23.164;2022-12-05T13:29:33;19.70;;;11.10;;
73697;SDS011;62004;42.566;23.164;2022-12-05T13:32:01;18.10;;;10.88;;
73697;SDS011;62004;42.566;23.164;2022-12-05T13:36:59;18.38;;;10.13;;
73697;SDS011;62004;42.566;23.164;2022-12-05T13:39:53;19.95;;;9.23;;
73697;SDS011;62004;42.566;23.164;2022-12-05T13:42:38;17.73;;;11.23;;
73697;SDS011;62004;42.566;23.164;2022-12-05T13:45:06;21.23;;;12.23;;
73697;SDS011;62004;42.566;23.164;2022-12-05T13:52:54;23.77;;;9.95;;
73697;SDS011;62004;42.566;23.164;2022-12-05T13:55:26;21.95;;;9.90;;
73697;SDS011;62004;42.566;23.164;2022-12-05T13:57:58;20.55;;;10.43;;
73697;SDS011;62004;42.566;23.164;2022-12-05T14:00:28;21.17;;;10.77;;
73697;SDS011;62004;42.566;23.164;2022-12-05T14:02:56;23.67;;;12.07;;
73697;SDS011;62004;42.566;23.164;2022-12-05T14:07:55;26.48;;;14.55;;
73697;SDS011;62004;42.566;23.164;2022-12-05T14:12:54;43.47;;;15.18;;
73697;SDS011;62004;42.566;23.164;2022-12-05T14:15:30;27.58;;;14.23;;
73697;SDS011;62004;42.566;23.164;2022-12-05T14:21:05;23.17;;;13.00;;
73697;SDS011;62004;42.566;23.164;2022-12-05T14:26:51;20.10;;;11.07;;
73697;SDS011;62004;42.566;23.164;2022-12-05T14:29:36;26.02;;;10.68;;
73697;SDS011;62004;42.566;23.164;2022-12-05T14:37:41;22.10;;;11.60;;
73697;SDS011;62004;42.566;23.164;2022-12-05T14:40:31;22.10;;;13.45;;
73697;SDS011;62004;42.566;23.164;2022-12-05T14:45:29;19.27;;;10.98;;
73697;SDS011;62004;42.566;23.164;2022-12-05T14:53:17;19.63;;;11.98;;
73697;SDS011;62004;42.566;23.164;2022-12-05T14:55:54;19.92;;;12.35;;
73697;SDS011;62004;42.566;23.164;2022-12-05T15:09:20;24.23;;;13.43;;
73697;SDS011;62004;42.566;23.164;2022-12-05T15:11:49;25.98;;;14.40;;
73697;SDS011;62004;42.566;23.164;2022-12-05T15:14:19;29.45;;;15.38;;
73697;SDS011;62004;42.566;23.164;2022-12-05T15:16:46;25.85;;;14.52;;
73697;SDS011;62004;42.566;23.164;2022-12-05T15:19:16;28.25;;;14.70;;
73697;SDS011;62004;42.566;23.164;2022-12-05T15:21:59;27.50;;;13.68;;
73697;SDS011;62004;42.566;23.164;2022-12-05T15:24:26;31.95;;;14.30;;
73697;SDS011;62004;42.566;23.164;2022-12-05T15:36:57;27.02;;;14.00;;
73697;SDS011;62004;42.566;23.164;2022-12-05T15:39:51;27.98;;;15.98;;
73697;SDS011;62004;42.566;23.164;2022-12-05T15:42:18;21.35;;;12.35;;
73697;SDS011;62004;42.566;23.164;2022-12-05T15:44:44;20.27;;;12.30;;
73697;SDS011;62004;42.566;23.164;2022-12-05T15:47:23;24.90;;;14.20;;
73697;SDS011;62004;42.566;23.164;2022-12-05T15:49:50;25.70;;;13.05;;
73697;SDS011;62004;42.566;23.164;2022-12-05T15:52:28;26.85;;;13.48;;
73697;SDS011;62004;42.566;23.164;2022-12-05T15:54:58;31.08;;;15.90;;
73697;SDS011;62004;42.566;23.164;2022-12-05T15:57:26;26.63;;;13.90;;
73697;SDS011;62004;42.566;23.164;2022-12-05T16:00:00;27.98;;;14.05;;
73697;SDS011;62004;42.566;23.164;2022-12-05T16:02:40;30.80;;;13.35;;
73697;SDS011;62004;42.566;23.164;2022-12-05T16:05:17;25.45;;;13.40;;
73697;SDS011;62004;42.566;23.164;2022-12-05T16:07:47;24.67;;;12.73;;
73697;SDS011;62004;42.566;23.164;2022-12-05T16:10:14;26.10;;;13.93;;
73697;SDS011;62004;42.566;23.164;2022-12-05T16:12:40;24.25;;;14.02;;
73697;SDS011;62004;42.566;23.164;2022-12-05T16:15:09;25.80;;;13.82;;
73697;SDS011;62004;42.566;23.164;2022-12-05T16:17:47;30.27;;;15.15;;
73697;SDS011;62004;42.566;23.164;2022-12-05T16:20:32;22.35;;;12.65;;
73697;SDS011;62004;42.566;23.164;2022-12-05T16:25:30;26.23;;;12.90;;
73697;SDS011;62004;42.566;23.164;2022-12-05T16:30:31;25.30;;;13.07;;
73697;SDS011;62004;42.566;23.164;2022-12-05T16:33:02;32.75;;;15.18;;
73697;SDS011;62004;42.566;23.164;2022-12-05T16:35:33;22.13;;;12.02;;
73697;SDS011;62004;42.566;23.164;2022-12-05T16:43:01;27.77;;;14.68;;
73697;SDS011;62004;42.566;23.164;2022-12-05T16:45:40;32.97;;;15.57;;
73697;SDS011;62004;42.566;23.164;2022-12-05T16:48:14;35.92;;;16.27;;
73697;SDS011;62004;42.566;23.164;2022-12-05T16:50:40;28.00;;;14.45;;
73697;SDS011;62004;42.566;23.164;2022-12-05T16:55:37;27.45;;;14.82;;
73697;SDS011;62004;42.566;23.164;2022-12-05T16:58:03;27.13;;;15.23;;
73697;SDS011;62004;42.566;23.164;2022-12-05T17:00:29;34.65;;;13.75;;
73697;SDS011;62004;42.566;23.164;2022-12-05T17:02:55;32.78;;;16.33;;
73697;SDS011;62004;42.566;23.164;2022-12-05T17:05:22;32.65;;;16.35;;
73697;SDS011;62004;42.566;23.164;2022-12-05T17:07:48;29.30;;;14.60;;
73697;SDS011;62004;42.566;23.164;2022-12-05T17:10:14;29.80;;;15.52;;
73697;SDS011;62004;42.566;23.164;2022-12-05T17:12:40;34.47;;;14.98;;
73697;SDS011;62004;42.566;23.164;2022-12-05T17:15:11;34.08;;;16.45;;
73697;SDS011;62004;42.566;23.164;2022-12-05T17:17:41;35.60;;;16.55;;
73697;SDS011;62004;42.566;23.164;2022-12-05T17:20:07;26.60;;;14.48;;
73697;SDS011;62004;42.566;23.164;2022-12-05T17:22:33;39.90;;;15.52;;
73697;SDS011;62004;42.566;23.164;2022-12-05T17:24:58;29.20;;;15.10;;
73697;SDS011;62004;42.566;23.164;2022-12-05T17:27:24;33.25;;;15.85;;
73697;SDS011;62004;42.566;23.164;2022-12-05T17:29:50;41.25;;;15.25;;
73697;SDS011;62004;42.566;23.164;2022-12-05T17:32:16;40.33;;;16.48;;
73697;SDS011;62004;42.566;23.164;2022-12-05T17:34:41;44.63;;;14.68;;
73697;SDS011;62004;42.566;23.164;2022-12-05T17:37:10;49.25;;;17.48;;